This is the latest recevied weather packets stored in our database for station/object K5RWS. If no packets are shown the sender has not sent any weather packets the latest 10 day(s).
| Time | Temp. | Humidity | Pressure | Rain* | Wind** | Luminosity | Snow |
|---|---|---|---|---|---|---|---|
| 1777671266 | 13.89° C | 49% | 1019.1 hPa | 0 mm | - | 125 W/m² | - |
| 1777670961 | 14.44° C | 48% | 1019.5 hPa | 0 mm | - | 71 W/m² | - |
| 1777670658 | 15° C | 48% | 1019.3 hPa | 0 mm | - | 101 W/m² | - |
| 1777670355 | 15.56° C | 47% | 1019 hPa | 0 mm | - | 184 W/m² | - |
| 1777670053 | 16.11° C | 45% | 1018.8 hPa | 0 mm | - | 430 W/m² | - |
| 1777669750 | 15.56° C | 45% | 1018.7 hPa | 0 mm | - | 343 W/m² | - |
| 1777669447 | 15.56° C | 46% | 1018.9 hPa | 0 mm | - | 366 W/m² | - |
| 1777669143 | 15.56° C | 46% | 1018.9 hPa | 0 mm | - | 262 W/m² | - |
| 1777668840 | 15.56° C | 46% | 1018.9 hPa | 0 mm | - | 331 W/m² | - |
| 1777668537 | 16.67° C | 45% | 1019 hPa | 0 mm | - | 321 W/m² | - |
| 1777668233 | 16.11° C | 45% | 1019.1 hPa | 0 mm | - | 831 W/m² | - |
| 1777667929 | 16.67° C | 45% | 1019 hPa | 0 mm | - | 785 W/m² | - |
| 1777667627 | 16.11° C | 45% | 1019 hPa | 0 mm | - | 635 W/m² | - |
| 1777667324 | 17.22° C | 44% | 1019.3 hPa | 0 mm | - | 591 W/m² | - |
| 1777667021 | 16.67° C | 47% | 1019 hPa | 0 mm | - | 785 W/m² | - |
| 1777666717 | 16.67° C | 46% | 1019 hPa | 0 mm | - | 681 W/m² | - |
| 1777666414 | 16.11° C | 49% | 1019.1 hPa | 0 mm | - | 463 W/m² | - |
| 1777666111 | 16.67° C | 50% | 1019.3 hPa | 0 mm | - | 611 W/m² | - |
| 1777665808 | 15.56° C | 54% | 1019.3 hPa | 0 mm | - | 337 W/m² | - |
| 1777665506 | 15.56° C | 52% | 1019.1 hPa | 0 mm | - | 218 W/m² | - |
| 1777665201 | 16.11° C | 49% | 1019.5 hPa | 0 mm | - | 830 W/m² | - |
| 1777664892 | 15° C | 51% | 1019.4 hPa | 0 mm | - | 868 W/m² | - |
| 1777664588 | 15.56° C | 50% | 1019.5 hPa | 0 mm | - | 830 W/m² | - |
| 1777664284 | 15.56° C | 51% | 1019.4 hPa | 0 mm | - | 837 W/m² | - |
| 1777663983 | 15° C | 53% | 1019.5 hPa | 0 mm | - | 948 W/m² | - |
* Rain latest hour (hover to see other rain measurements)
** Current wind speed in m/s (hover to see current wind gust speed)